Time;durP1;ratioP1;P1;durP2;ratioP2;P2;SDS_P1;SDS_P2;PMS_P1;PMS_P2;Temp;Humidity;BMP_temperature;BMP_pressure;BME280_temperature;BME280_humidity;BME280_pressure;Samples;Min_cycle;Max_cycle;Signal;HPM_P1;HPM_P2
2021/10/05 00:02:13;;;;;;;1.53;1.40;;;14.80;86.90;;;;;;4991860;28;20178;-93
2021/10/05 00:04:41;;;;;;;1.60;1.53;;;;;;;;;;4971702;28;20510;-92
2021/10/05 00:07:07;;;;;;;3.60;2.07;;;13.30;81.60;;;;;;4977193;28;20249;-92
2021/10/05 00:09:33;;;;;;;1.53;1.53;;;;;;;;;;4970053;28;20424;-92
2021/10/05 00:12:01;;;;;;;1.47;1.40;;;13.30;81.80;;;;;;4970200;28;20208;-92
2021/10/05 00:14:27;;;;;;;1.60;1.50;;;15.10;86.60;;;;;;4988795;28;20447;-92
2021/10/05 00:16:53;;;;;;;1.77;1.67;;;13.70;88.40;;;;;;4969449;28;20425;-92
2021/10/05 00:19:19;;;;;;;1.27;1.27;;;;;;;;;;4969571;28;20425;-92
2021/10/05 00:21:45;;;;;;;1.67;1.67;;;13.20;82.50;;;;;;4971832;28;20174;-92
2021/10/05 00:24:12;;;;;;;1.53;1.50;;;15.50;89.20;;;;;;4972114;28;20421;-92
2021/10/05 00:26:39;;;;;;;2.47;2.47;;;14.90;88.80;;;;;;4969646;28;20457;-92
2021/10/05 00:29:07;;;;;;;1.30;1.30;;;14.50;86.80;;;;;;4970047;28;20417;-91
2021/10/05 00:31:33;;;;;;;1.33;1.33;;;13.60;86.20;;;;;;4974613;28;20931;-93
2021/10/05 00:34:01;;;;;;;2.13;1.57;;;13.80;90.00;;;;;;4979255;28;20421;-92
2021/10/05 00:36:32;;;;;;;1.80;1.80;;;13.10;87.60;;;;;;4966423;28;20397;-92
2021/10/05 00:38:58;;;;;;;1.30;1.30;;;13.00;82.80;;;;;;4979822;28;20481;-92
2021/10/05 00:41:29;;;;;;;1.40;1.40;;;15.50;91.80;;;;;;4969630;28;20421;-93
2021/10/05 00:43:59;;;;;;;1.30;1.30;;;12.20;88.50;;;;;;4955789;28;20433;-91
2021/10/05 00:46:41;;;;;;;2.00;2.00;;;14.90;90.80;;;;;;4971961;28;20496;-92
2021/10/05 00:49:07;;;;;;;1.97;1.90;;;13.20;83.20;;;;;;4961722;28;20984;-93
2021/10/05 00:51:47;;;;;;;2.20;2.00;;;13.20;90.30;;;;;;4996342;28;20493;-92
2021/10/05 00:54:25;;;;;;;1.63;1.53;;;15.00;90.80;;;;;;4977319;28;20428;-92
2021/10/05 00:56:52;;;;;;;1.33;1.33;;;13.10;83.30;;;;;;4977569;28;20428;-92
2021/10/05 00:59:27;;;;;;;1.80;1.30;;;14.40;87.90;;;;;;4976788;28;20444;-93
2021/10/05 01:02:00;;;;;;;1.37;1.37;;;13.10;92.70;;;;;;4986405;28;20436;-93
2021/10/05 01:04:31;;;;;;;1.50;1.50;;;13.10;93.20;;;;;;4986104;28;20421;-93
2021/10/05 01:07:13;;;;;;;1.40;1.40;;;14.40;85.80;;;;;;4997930;28;20433;-92
2021/10/05 01:09:44;;;;;;;1.60;1.57;;;16.80;90.00;;;;;;4929438;28;20417;-92
2021/10/05 01:12:13;;;;;;;2.83;1.30;;;13.50;86.60;;;;;;4977568;28;20445;-91
2021/10/05 01:14:41;;;;;;;2.33;2.23;;;15.70;88.70;;;;;;4962327;28;20433;-91
2021/10/05 01:17:15;;;;;;;1.77;1.77;;;13.50;87.90;;;;;;4975238;28;20510;-92
2021/10/05 01:19:41;;;;;;;1.10;1.10;;;12.00;81.60;;;;;;4973885;28;20429;-92
2021/10/05 01:22:08;;;;;;;1.43;1.40;;;13.90;88.80;;;;;;4980481;28;20421;-93
2021/10/05 01:24:35;;;;;;;1.73;1.70;;;13.50;84.00;;;;;;4995432;28;20425;-92
2021/10/05 01:27:01;;;;;;;1.47;1.47;;;11.40;88.10;;;;;;4978048;28;20433;-92
2021/10/05 01:29:29;;;;;;;3.03;1.40;;;13.20;88.40;;;;;;4991415;28;20472;-92
2021/10/05 01:32:08;;;;;;;2.03;1.90;;;15.10;88.10;;;;;;4973661;28;20822;-92
2021/10/05 01:34:35;;;;;;;1.30;1.30;;;12.80;89.90;;;;;;4958709;28;20485;-92
2021/10/05 01:37:01;;;;;;;1.60;1.47;;;14.60;90.30;;;;;;4977125;28;20441;-92
2021/10/05 01:39:29;;;;;;;1.60;1.60;;;13.90;85.70;;;;;;4979243;28;20493;-93
2021/10/05 01:41:59;;;;;;;1.57;1.50;;;12.70;86.30;;;;;;4974369;28;20429;-93
2021/10/05 01:44:26;;;;;;;2.33;2.13;;;14.70;88.70;;;;;;4970203;28;20417;-91
2021/10/05 01:46:58;;;;;;;2.67;1.70;;;12.90;92.30;;;;;;5161631;23;21896;-93
2021/10/05 01:49:25;;;;;;;1.30;1.30;;;14.90;89.80;;;;;;4970209;28;20456;-92
2021/10/05 01:51:51;;;;;;;1.60;1.60;;;13.30;91.80;;;;;;4971641;28;20433;-91
2021/10/05 01:54:20;;;;;;;1.63;1.63;;;14.30;90.00;;;;;;4969609;28;20453;-93
2021/10/05 01:56:53;;;;;;;1.43;1.43;;;13.30;91.00;;;;;;4966148;28;20418;-92
2021/10/05 01:59:23;;;;;;;1.90;1.30;;;12.70;85.70;;;;;;4972842;28;20459;-92
2021/10/05 02:01:49;;;;;;;1.60;1.30;;;;;;;;;;4992996;28;20421;-91
2021/10/05 02:04:18;;;;;;;1.30;1.30;;;12.70;85.10;;;;;;4978391;28;20261;-90
2021/10/05 02:06:45;;;;;;;4.90;2.10;;;12.70;90.00;;;;;;4976138;28;20480;-92
2021/10/05 02:09:12;;;;;;;3.60;1.57;;;12.50;90.20;;;;;;4972137;28;20785;-91
2021/10/05 02:11:38;;;;;;;1.40;1.40;;;13.10;88.70;;;;;;4967578;28;20421;-92
2021/10/05 02:14:05;;;;;;;1.23;1.23;;;14.10;92.30;;;;;;4974993;28;20536;-91
2021/10/05 02:16:49;;;;;;;1.73;1.50;;;12.70;87.70;;;;;;4975912;28;20453;-92
2021/10/05 02:19:16;;;;;;;2.03;1.70;;;12.30;85.60;;;;;;4974499;28;20905;-91
2021/10/05 02:21:46;;;;;;;1.77;1.77;;;11.80;91.20;;;;;;4973299;28;20426;-92
2021/10/05 02:26:50;;;;;;;1.90;1.90;;;14.20;88.50;;;;;;4991215;28;20501;-92
2021/10/05 02:29:17;;;;;;;1.20;1.20;;;12.30;89.00;;;;;;4974326;28;20417;-93
2021/10/05 02:31:45;;;;;;;1.20;1.20;;;14.80;90.30;;;;;;4976388;28;20421;-93
2021/10/05 02:34:20;;;;;;;1.60;1.50;;;15.90;91.30;;;;;;4977576;28;20425;-92
2021/10/05 02:36:52;;;;;;;1.50;1.50;;;13.30;90.30;;;;;;4962502;28;20437;-92
2021/10/05 02:39:22;;;;;;;1.87;1.77;;;15.00;93.20;;;;;;4974720;28;20425;-92
2021/10/05 02:41:51;;;;;;;1.67;1.57;;;13.70;89.70;;;;;;4990533;28;20416;-92
2021/10/05 02:44:16;;;;;;;1.87;1.83;;;12.00;88.70;;;;;;4970584;28;20421;-90
2021/10/05 02:46:42;;;;;;;1.47;1.47;;;;;;;;;;4969367;28;20691;-91
2021/10/05 02:49:08;;;;;;;1.33;1.33;;;12.70;86.30;;;;;;4993330;28;20166;-92
2021/10/05 02:51:37;;;;;;;1.60;1.50;;;15.10;91.20;;;;;;4971187;28;20460;-92
2021/10/05 02:54:02;;;;;;;1.30;1.30;;;12.00;90.00;;;;;;4975317;28;20254;-92
2021/10/05 02:56:28;;;;;;;1.50;1.50;;;;;;;;;;4970350;28;20437;-90
2021/10/05 02:58:54;;;;;;;1.50;1.50;;;12.70;86.40;;;;;;4970016;28;20198;-94
2021/10/05 03:01:20;;;;;;;1.67;1.67;;;;;;;;;;4972486;28;20432;-91
2021/10/05 03:03:46;;;;;;;1.30;1.30;;;12.80;86.40;;;;;;4969239;28;20221;-92
2021/10/05 03:06:12;;;;;;;1.63;1.53;;;;;;;;;;4965424;28;20469;-90
2021/10/05 03:08:40;;;;;;;2.57;1.37;;;12.80;86.00;;;;;;4966961;28;20169;-92
2021/10/05 03:11:06;;;;;;;0.90;0.90;;;15.50;92.50;;;;;;4963472;28;20429;-91
2021/10/05 03:13:38;;;;;;;1.00;1.00;;;14.90;94.10;;;;;;4968870;28;20456;-93
2021/10/05 03:16:10;;;;;;;1.30;1.30;;;11.80;87.40;;;;;;4972756;28;20269;-93
2021/10/05 03:18:38;;;;;;;1.40;1.40;;;13.10;90.60;;;;;;4965408;28;20422;-92
2021/10/05 03:21:04;;;;;;;2.10;1.80;;;14.10;90.40;;;;;;4962646;28;20421;-92
2021/10/05 03:23:30;;;;;;;1.27;1.27;;;14.40;90.90;;;;;;4968345;28;20461;-94
2021/10/05 03:25:56;;;;;;;1.10;1.10;;;15.20;93.70;;;;;;4968243;28;20221;-92
2021/10/05 03:28:25;;;;;;;1.50;1.50;;;;;;;;;;4970361;28;20460;-93
2021/10/05 03:30:51;;;;;;;1.50;1.50;;;12.70;86.60;;;;;;4981814;28;20197;-92
2021/10/05 03:33:19;;;;;;;1.33;1.33;;;14.40;90.20;;;;;;4982896;28;20448;-92
2021/10/05 03:35:50;;;;;;;1.83;1.73;;;14.80;90.30;;;;;;4981807;28;20162;-94
2021/10/05 03:38:19;;;;;;;1.57;1.57;;;13.00;90.10;;;;;;4973058;28;20428;-90
2021/10/05 03:40:45;;;;;;;1.40;1.40;;;12.90;93.40;;;;;;4974266;28;20437;-92
2021/10/05 03:43:13;;;;;;;1.90;1.80;;;12.90;92.20;;;;;;4956823;28;20446;-93
2021/10/05 03:45:46;;;;;;;1.30;1.30;;;11.30;90.10;;;;;;4984204;28;20848;-92
2021/10/05 03:48:13;;;;;;;2.30;2.20;;;13.00;90.50;;;;;;4950934;28;20832;-92
2021/10/05 03:50:39;;;;;;;1.40;1.30;;;14.70;93.10;;;;;;4970306;28;20440;-92
2021/10/05 03:53:17;;;;;;;1.37;1.37;;;11.70;88.50;;;;;;4971377;28;20529;-92
2021/10/05 03:55:50;;;;;;;2.77;2.60;;;13.10;91.30;;;;;;4964957;28;20448;-92
2021/10/05 03:58:19;;;;;;;1.70;1.60;;;14.40;91.50;;;;;;4971317;28;20426;-92
2021/10/05 04:00:46;;;;;;;1.37;1.37;;;11.90;90.70;;;;;;4966769;28;20421;-93
2021/10/05 04:03:15;;;;;;;1.60;1.60;;;12.80;90.70;;;;;;4956418;28;20421;-92
2021/10/05 04:05:40;;;;;;;1.43;1.43;;;11.70;88.10;;;;;;4973342;28;20473;-91
2021/10/05 04:08:06;;;;;;;1.70;1.70;;;;;;;;;;4975647;28;20485;-89
2021/10/05 04:10:32;;;;;;;1.67;1.67;;;12.50;88.50;;;;;;4981283;28;20169;-93
2021/10/05 04:12:59;;;;;;;2.10;2.10;;;12.80;95.50;;;;;;5022167;23;20700;-91
2021/10/05 04:15:25;;;;;;;2.07;1.73;;;12.20;90.80;;;;;;4968218;28;20516;-91
2021/10/05 04:17:51;;;;;;;1.70;1.60;;;;;;;;;;4967441;28;20453;-93
2021/10/05 04:20:17;;;;;;;4.10;1.63;;;12.60;88.60;;;;;;4981501;28;20547;-92
2021/10/05 04:22:43;;;;;;;7.43;3.47;;;;;;;;;;4966906;28;20512;-92
2021/10/05 04:25:15;;;;;;;1.97;1.97;;;12.60;89.20;;;;;;4971778;28;20228;-93
2021/10/05 04:27:41;;;;;;;1.67;1.67;;;14.60;92.00;;;;;;4967254;28;20469;-93
2021/10/05 04:30:12;;;;;;;1.90;1.90;;;15.50;93.70;;;;;;4972526;28;20425;-91
2021/10/05 04:32:42;;;;;;;1.97;1.97;;;12.60;90.80;;;;;;4969150;28;20430;-91
2021/10/05 04:35:08;;;;;;;2.20;2.10;;;11.90;90.90;;;;;;4968663;28;20986;-90
2021/10/05 04:37:33;;;;;;;1.70;1.70;;;12.90;93.60;;;;;;4971634;28;20433;-93
2021/10/05 04:39:59;;;;;;;2.30;2.23;;;;;;;;;;4965608;28;20433;-91
2021/10/05 04:42:26;;;;;;;2.00;2.00;;;12.40;89.80;;;;;;4968460;28;20181;-93
2021/10/05 04:44:52;;;;;;;1.90;1.90;;;12.40;91.90;;;;;;4952098;28;20457;-92
2021/10/05 04:47:20;;;;;;;2.20;2.10;;;12.40;90.00;;;;;;4967362;28;20433;-91
2021/10/05 04:49:49;;;;;;;2.50;2.50;;;14.20;94.20;;;;;;4962416;28;20197;-92
2021/10/05 04:52:18;;;;;;;2.40;2.23;;;13.10;93.60;;;;;;4968044;28;20422;-92
2021/10/05 04:54:44;;;;;;;2.20;2.10;;;14.10;95.40;;;;;;4984229;28;20417;-91
2021/10/05 04:57:17;;;;;;;2.30;2.30;;;15.00;93.70;;;;;;4967419;28;20468;-93
2021/10/05 04:59:43;;;;;;;2.57;2.57;;;12.30;91.70;;;;;;4980061;28;20182;-94
2021/10/05 05:02:09;;;;;;;3.10;3.00;;;;;;;;;;4966646;28;20484;-93
2021/10/05 05:04:35;;;;;;;2.57;2.57;;;12.30;90.90;;;;;;4967371;28;20185;-92
2021/10/05 05:07:01;;;;;;;2.80;2.77;;;;;;;;;;4964568;28;20469;-88
2021/10/05 05:09:27;;;;;;;2.37;2.37;;;12.30;90.80;;;;;;4985282;28;20413;-92
2021/10/05 05:12:00;;;;;;;3.10;3.00;;;12.50;93.20;;;;;;4965066;28;20429;-94
2021/10/05 05:14:26;;;;;;;3.30;3.00;;;14.70;92.80;;;;;;4933173;29;20321;-90
2021/10/05 05:17:00;;;;;;;2.97;2.77;;;14.80;93.90;;;;;;4966876;28;20426;-92
2021/10/05 05:19:26;;;;;;;3.97;3.00;;;12.20;95.20;;;;;;4962240;28;20652;-91
2021/10/05 05:21:57;;;;;;;2.87;2.87;;;13.90;94.50;;;;;;4968381;28;20465;-89
2021/10/05 05:24:23;;;;;;;3.20;3.10;;;14.40;94.10;;;;;;4961344;28;20242;-87
2021/10/05 05:26:49;;;;;;;2.63;2.60;;;13.70;92.90;;;;;;4962811;28;20556;-89
2021/10/05 05:29:15;;;;;;;3.00;3.00;;;;;;;;;;4963702;28;20170;-90
2021/10/05 05:31:44;;;;;;;2.90;2.90;;;12.30;91.20;;;;;;4963665;28;20179;-90
2021/10/05 05:34:09;;;;;;;4.50;4.30;;;11.90;92.90;;;;;;4962302;28;20647;-89
2021/10/05 05:36:36;;;;;;;3.70;3.60;;;;;;;;;;4963048;28;20422;-91
2021/10/05 05:39:05;;;;;;;3.20;3.20;;;12.30;91.20;;;;;;4966359;28;20632;-88
2021/10/05 05:41:31;;;;;;;5.33;5.13;;;12.30;92.10;;;;;;4965426;28;20433;-90
2021/10/05 05:44:00;;;;;;;3.77;3.73;;;13.60;93.20;;;;;;4966670;29;20883;-93
2021/10/05 05:46:33;;;;;;;3.63;3.53;;;14.60;93.70;;;;;;4963572;28;20286;-89
2021/10/05 05:48:59;;;;;;;3.33;3.33;;;13.30;92.00;;;;;;4966966;29;20474;-89
2021/10/05 05:51:25;;;;;;;3.73;3.63;;;;;;;;;;4968527;28;20922;-91
2021/10/05 05:53:50;;;;;;;3.67;3.50;;;12.40;90.90;;;;;;4965059;28;20575;-88
2021/10/05 05:56:16;;;;;;;4.07;3.90;;;13.90;94.10;;;;;;4965606;28;20886;-88
2021/10/05 05:58:42;;;;;;;3.50;3.30;;;14.50;92.90;;;;;;4969155;28;20435;-88
2021/10/05 06:01:11;;;;;;;4.00;3.70;;;;;;;;;;4967808;28;20190;-89
2021/10/05 06:03:37;;;;;;;3.97;3.87;;;12.60;90.50;;;;;;4977217;28;20171;-88
2021/10/05 06:06:03;;;;;;;3.73;3.63;;;;;;;;;;5079598;23;20485;-86
2021/10/05 06:08:29;;;;;;;4.50;4.20;;;12.60;90.70;;;;;;4983256;28;20583;-91
2021/10/05 06:11:23;;;;;;;4.23;3.83;;;12.80;92.70;;;;;;4987671;28;20494;-92
2021/10/05 06:13:50;;;;;;;3.83;3.63;;;13.10;93.50;;;;;;4986147;28;20506;-88
2021/10/05 06:16:17;;;;;;;3.80;3.70;;;14.80;93.10;;;;;;4983691;28;20429;-87
2021/10/05 06:18:43;;;;;;;2.97;2.87;;;12.40;91.30;;;;;;4982113;28;20178;-89
2021/10/05 06:21:10;;;;;;;3.83;3.63;;;13.40;92.00;;;;;;4983180;28;20417;-93
2021/10/05 06:23:39;;;;;;;23.07;20.63;;;12.90;91.50;;;;;;4981242;28;20417;-91
2021/10/05 06:26:06;;;;;;;5.00;4.57;;;15.50;95.70;;;;;;4981149;28;20493;-91
2021/10/05 06:28:33;;;;;;;3.30;3.20;;;13.20;92.10;;;;;;4985918;28;20417;-91
2021/10/05 06:31:04;;;;;;;3.07;3.07;;;12.80;90.80;;;;;;4982253;28;20421;-89
2021/10/05 06:33:30;;;;;;;3.10;3.10;;;13.30;91.00;;;;;;4982974;28;20496;-92
2021/10/05 06:35:56;;;;;;;4.30;3.40;;;13.90;91.30;;;;;;4981528;28;20460;-90
2021/10/05 06:38:22;;;;;;;3.40;3.30;;;13.00;90.90;;;;;;4983106;28;20439;-90
2021/10/05 06:40:50;;;;;;;2.60;2.50;;;13.40;91.70;;;;;;4989074;28;20182;-92
2021/10/05 06:43:56;;;;;;;4.20;3.80;;;15.20;93.20;;;;;;4993190;28;20426;-91
2021/10/05 06:46:21;;;;;;;3.00;2.90;;;14.70;90.30;;;;;;4994010;28;20504;-90
2021/10/05 06:48:48;;;;;;;2.83;2.70;;;14.70;90.70;;;;;;4991698;28;20425;-90
2021/10/05 06:51:14;;;;;;;3.47;3.47;;;14.70;90.30;;;;;;4993661;28;20513;-91
2021/10/05 06:53:40;;;;;;;3.40;3.40;;;;;;;;;;4993010;28;20406;-90
2021/10/05 06:56:10;;;;;;;3.03;2.87;;;13.40;86.60;;;;;;4983466;28;20519;-89
2021/10/05 06:58:41;;;;;;;2.80;2.63;;;16.00;92.10;;;;;;4989299;28;20430;-92
2021/10/05 07:01:07;;;;;;;2.87;2.67;;;16.20;91.10;;;;;;4973769;28;20799;-91
2021/10/05 07:03:47;;;;;;;2.27;2.27;;;16.00;92.20;;;;;;4987115;28;20434;-92
2021/10/05 07:06:13;;;;;;;2.60;2.50;;;16.10;92.60;;;;;;5036187;23;20231;-93
2021/10/05 07:08:41;;;;;;;2.60;2.40;;;13.60;85.00;;;;;;4947680;29;20533;-91
2021/10/05 07:11:07;;;;;;;3.23;3.13;;;14.00;85.70;;;;;;4951886;28;20182;-90
2021/10/05 07:13:50;;;;;;;2.60;2.53;;;14.20;86.90;;;;;;4952815;29;20447;-90
2021/10/05 07:16:16;;;;;;;2.03;2.03;;;15.30;84.00;;;;;;4946155;29;20186;-92
2021/10/05 07:18:46;;;;;;;2.60;2.60;;;13.20;87.50;;;;;;4944627;29;20919;-90
2021/10/05 07:21:18;;;;;;;2.37;2.37;;;14.90;84.20;;;;;;4950737;29;20159;-89
2021/10/05 07:23:46;;;;;;;1.60;1.60;;;15.40;83.40;;;;;;4936790;29;20817;-89
2021/10/05 07:26:15;;;;;;;2.50;2.50;;;18.80;87.30;;;;;;4947294;29;20815;-90
2021/10/05 07:28:48;;;;;;;1.87;1.87;;;16.00;87.30;;;;;;4947711;29;20423;-89
2021/10/05 07:31:14;;;;;;;2.67;2.67;;;18.50;84.70;;;;;;4948758;29;20479;-90
2021/10/05 07:33:46;;;;;;;3.30;3.20;;;17.60;79.50;;;;;;4946247;29;20423;-92
2021/10/05 07:36:20;;;;;;;2.30;2.30;;;18.30;79.80;;;;;;4951079;28;20479;-92
2021/10/05 07:38:49;;;;;;;3.07;3.07;;;21.50;86.60;;;;;;4947828;29;20478;-90
2021/10/05 07:41:15;;;;;;;2.20;2.10;;;15.10;83.70;;;;;;4949060;29;20411;-90
2021/10/05 07:43:41;;;;;;;1.90;1.80;;;16.90;87.50;;;;;;4939443;29;20450;-86
2021/10/05 07:46:09;;;;;;;1.50;1.50;;;18.20;86.70;;;;;;4950762;29;20206;-88
2021/10/05 07:48:36;;;;;;;1.87;1.87;;;;;;;;;;4962537;29;20188;-88
2021/10/05 07:51:02;;;;;;;2.13;2.13;;;16.20;72.20;;;;;;4962632;29;20550;-88
2021/10/05 07:53:28;;;;;;;1.90;1.90;;;19.30;77.80;;;;;;4964432;28;20481;-89
2021/10/05 07:55:53;;;;;;;1.67;1.67;;;16.60;75.90;;;;;;4965043;29;20171;-86
2021/10/05 07:58:19;;;;;;;1.87;1.87;;;15.80;70.80;;;;;;4963299;29;20174;-89
2021/10/05 08:00:47;;;;;;;1.70;1.70;;;18.40;78.20;;;;;;4959795;29;20257;-89
2021/10/05 08:03:13;;;;;;;1.77;1.70;;;17.30;67.10;;;;;;4942975;29;20203;-90
2021/10/05 08:05:39;;;;;;;3.07;1.67;;;17.20;71.80;;;;;;4943520;29;20478;-89
2021/10/05 08:08:07;;;;;;;1.53;1.53;;;17.60;68.50;;;;;;4945960;29;20258;-91
2021/10/05 08:10:34;;;;;;;1.47;1.47;;;19.10;69.10;;;;;;4947668;29;20427;-91
2021/10/05 08:13:01;;;;;;;1.40;1.40;;;20.60;66.70;;;;;;4953993;29;20411;-91
2021/10/05 08:15:28;;;;;;;1.50;1.50;;;18.90;63.40;;;;;;4957891;29;20388;-88
2021/10/05 08:17:55;;;;;;;1.80;1.80;;;19.40;60.70;;;;;;4941934;29;20445;-89
2021/10/05 08:20:21;;;;;;;2.53;1.67;;;20.70;59.30;;;;;;4956104;29;20428;-90
2021/10/05 08:22:47;;;;;;;1.33;1.33;;;21.20;58.10;;;;;;4958423;29;20431;-90
2021/10/05 08:25:13;;;;;;;1.47;1.47;;;22.80;54.70;;;;;;4957095;28;20542;-91
2021/10/05 08:27:44;;;;;;;1.77;1.77;;;22.40;56.20;;;;;;4954981;28;20931;-91
2021/10/05 08:30:13;;;;;;;1.40;1.40;;;23.30;53.10;;;;;;4954935;29;20171;-87
2021/10/05 08:32:39;;;;;;;1.57;1.57;;;23.80;51.20;;;;;;4957642;28;20435;-91
2021/10/05 08:35:06;;;;;;;1.67;1.67;;;25.70;53.10;;;;;;4957278;28;20444;-88
2021/10/05 08:37:34;;;;;;;1.53;1.53;;;22.50;52.30;;;;;;4957086;28;20422;-90
2021/10/05 08:40:09;;;;;;;1.57;1.57;;;24.50;52.50;;;;;;4955797;29;20451;-89
2021/10/05 08:42:38;;;;;;;1.40;1.40;;;22.50;51.10;;;;;;4956323;29;20434;-89
2021/10/05 08:45:06;;;;;;;1.50;1.40;;;21.40;49.90;;;;;;4950748;29;20819;-90
2021/10/05 08:47:36;;;;;;;1.17;1.17;;;22.90;50.70;;;;;;4954739;28;20442;-90
2021/10/05 08:50:03;;;;;;;1.20;1.20;;;23.30;49.60;;;;;;4936753;29;20432;-86
2021/10/05 08:52:29;;;;;;;1.00;1.00;;;23.60;50.40;;;;;;4935887;29;20424;-87
2021/10/05 08:54:56;;;;;;;1.13;1.13;;;;;;;;;;4945921;29;20480;-86
2021/10/05 08:57:26;;;;;;;1.10;1.10;;;;;;;;;;4948693;28;20460;-88
2021/10/05 08:59:52;;;;;;;1.03;1.03;;;;;;;;;;4947880;29;20428;-88
2021/10/05 09:02:19;;;;;;;1.33;1.33;;;;;;;;;;4951491;28;20424;-91
2021/10/05 09:04:47;;;;;;;1.37;1.37;;;;;;;;;;4954243;28;20450;-90
2021/10/05 09:07:24;;;;;;;1.10;1.10;;;24.20;46.40;;;;;;4946666;29;20798;-89
2021/10/05 09:09:59;;;;;;;1.07;1.07;;;25.70;49.20;;;;;;4948313;29;20427;-87
2021/10/05 09:12:31;;;;;;;1.20;1.20;;;23.40;48.10;;;;;;4954491;29;20614;-91
2021/10/05 09:14:59;;;;;;;1.37;1.27;;;23.40;48.50;;;;;;4952112;29;20515;-90
2021/10/05 09:17:29;;;;;;;1.23;1.20;;;23.20;48.60;;;;;;4937136;29;20412;-89
2021/10/05 09:19:57;;;;;;;1.50;1.50;;;22.70;49.20;;;;;;4947616;29;20428;-92
2021/10/05 09:22:34;;;;;;;1.07;1.07;;;23.20;50.00;;;;;;4945351;28;20438;-87
2021/10/05 09:24:59;;;;;;;1.07;1.07;;;24.60;49.60;;;;;;4935687;29;20399;-89
2021/10/05 09:27:27;;;;;;;1.30;1.20;;;23.10;50.00;;;;;;4930581;29;20434;-88
2021/10/05 09:29:53;;;;;;;1.10;1.10;;;25.10;49.30;;;;;;4949666;29;20195;-87
2021/10/05 09:32:26;;;;;;;2.70;1.47;;;25.40;49.70;;;;;;4933275;29;20431;-89
2021/10/05 09:34:58;;;;;;;4.53;1.60;;;24.00;48.40;;;;;;4934669;29;20536;-89
2021/10/05 09:37:28;;;;;;;1.23;1.17;;;22.30;47.00;;;;;;4930184;29;20427;-87
2021/10/05 09:40:10;;;;;;;1.27;1.20;;;24.10;48.50;;;;;;4930485;29;20412;-89
2021/10/05 09:42:41;;;;;;;2.30;1.00;;;23.40;47.70;;;;;;4932538;29;20400;-86
2021/10/05 09:45:16;;;;;;;2.43;1.20;;;23.80;47.40;;;;;;4929061;29;20455;-87
2021/10/05 09:47:51;;;;;;;1.60;1.60;;;23.40;46.80;;;;;;4926349;29;20412;-86
2021/10/05 09:50:28;;;;;;;0.90;0.90;;;23.30;47.10;;;;;;4942907;29;20427;-88
2021/10/05 09:52:58;;;;;;;2.50;2.40;;;23.40;46.70;;;;;;4943883;29;20501;-87
2021/10/05 09:55:31;;;;;;;1.03;1.03;;;24.50;48.00;;;;;;4922767;29;20482;-86
2021/10/05 09:57:59;;;;;;;0.80;0.80;;;25.00;47.80;;;;;;4926162;29;20428;-88
2021/10/05 10:00:31;;;;;;;1.00;1.00;;;24.50;46.00;;;;;;4583989;29;9999785;-88
2021/10/05 10:02:57;;;;;;;1.17;1.17;;;26.00;45.40;;;;;;4922647;29;20168;-87
2021/10/05 10:05:25;;;;;;;1.07;1.03;;;;;;;;;;4923986;29;20467;-90
2021/10/05 10:07:53;;;;;;;1.60;1.17;;;;;;;;;;4924730;29;20448;-87
2021/10/05 10:10:20;;;;;;;1.20;1.20;;;;;;;;;;4923755;29;20424;-91
2021/10/05 10:12:52;;;;;;;1.03;1.03;;;;;;;;;;4924899;29;20448;-92
2021/10/05 10:15:19;;;;;;;1.17;0.90;;;26.90;40.90;;;;;;4926871;29;20400;-87
2021/10/05 10:17:47;;;;;;;1.00;1.00;;;26.60;41.90;;;;;;4927032;29;20507;-85
2021/10/05 10:20:27;;;;;;;0.83;0.83;;;27.20;44.00;;;;;;4926644;29;20492;-90
2021/10/05 10:22:55;;;;;;;1.00;1.00;;;27.90;45.00;;;;;;4922899;29;20436;-88
2021/10/05 10:25:31;;;;;;;1.33;1.03;;;25.00;42.70;;;;;;4925491;29;20476;-87
2021/10/05 10:28:10;;;;;;;1.20;1.20;;;25.60;43.00;;;;;;4943268;29;20424;-90
2021/10/05 10:30:48;;;;;;;0.93;0.93;;;25.90;44.20;;;;;;4941013;29;20435;-88
2021/10/05 10:33:13;;;;;;;1.03;0.87;;;25.60;43.40;;;;;;4922389;29;20432;-87
2021/10/05 10:35:49;;;;;;;1.27;1.27;;;25.90;44.40;;;;;;4921050;29;20510;-88
2021/10/05 10:38:24;;;;;;;1.50;1.20;;;27.00;43.10;;;;;;4924668;29;20187;-89
2021/10/05 10:40:50;;;;;;;0.97;0.97;;;26.20;42.30;;;;;;4926921;29;20400;-87
2021/10/05 10:43:19;;;;;;;1.33;1.33;;;26.40;44.20;;;;;;4926952;29;20437;-88
2021/10/05 10:45:49;;;;;;;0.83;0.83;;;25.10;42.50;;;;;;4938530;29;21036;-89
2021/10/05 10:48:39;;;;;;;1.47;1.03;;;23.50;44.50;;;;;;4940252;29;20483;-85
2021/10/05 10:51:20;;;;;;;1.30;1.20;;;25.30;42.90;;;;;;4942850;29;20594;-90
2021/10/05 10:53:54;;;;;;;1.20;1.20;;;25.90;43.60;;;;;;4942417;29;20423;-91
2021/10/05 10:56:37;;;;;;;1.20;1.20;;;26.00;43.60;;;;;;4942924;29;20419;-92
2021/10/05 10:59:25;;;;;;;1.20;1.10;;;26.00;41.50;;;;;;4942222;29;20426;-86
2021/10/05 11:01:58;;;;;;;3.47;0.90;;;27.60;41.80;;;;;;4942084;28;20443;-90
2021/10/05 11:04:26;;;;;;;0.87;0.87;;;27.40;42.20;;;;;;4943124;29;20426;-91
2021/10/05 11:06:56;;;;;;;1.70;1.20;;;26.10;43.80;;;;;;4938672;29;20486;-87
2021/10/05 11:09:33;;;;;;;0.80;0.80;;;26.80;41.50;;;;;;4939508;29;20411;-88
2021/10/05 11:12:27;;;;;;;1.20;1.03;;;26.80;41.50;;;;;;4941809;29;20434;-90
2021/10/05 11:14:54;;;;;;;1.10;1.10;;;27.30;43.30;;;;;;4938822;29;20482;-88
2021/10/05 11:17:20;;;;;;;2.33;0.97;;;27.20;44.40;;;;;;4939619;29;20419;-89
2021/10/05 11:19:46;;;;;;;1.10;1.10;;;27.40;42.40;;;;;;4942047;29;20441;-88
2021/10/05 11:22:16;;;;;;;1.07;1.07;;;27.20;40.80;;;;;;4940559;29;20247;-87
2021/10/05 11:24:50;;;;;;;0.97;0.97;;;27.40;41.30;;;;;;4942872;29;20179;-89
2021/10/05 11:27:23;;;;;;;1.43;0.93;;;26.70;40.80;;;;;;4941063;29;20481;-87
2021/10/05 11:29:49;;;;;;;1.27;1.27;;;26.50;42.60;;;;;;4938642;29;20442;-91
2021/10/05 11:32:20;;;;;;;0.90;0.90;;;26.40;41.80;;;;;;4941393;29;20439;-87
2021/10/05 11:34:52;;;;;;;1.00;0.90;;;26.80;41.70;;;;;;4941893;29;20412;-90
2021/10/05 11:37:21;;;;;;;0.80;0.80;;;28.10;41.90;;;;;;4942701;29;20515;-88
2021/10/05 11:39:48;;;;;;;1.80;1.30;;;26.80;43.80;;;;;;4942180;29;20459;-89
2021/10/05 11:42:19;;;;;;;1.20;1.20;;;28.10;42.90;;;;;;4940187;29;20632;-86
2021/10/05 11:44:49;;;;;;;0.90;0.90;;;28.00;42.40;;;;;;4943441;29;20419;-90
2021/10/05 11:47:22;;;;;;;2.50;1.03;;;28.80;43.20;;;;;;4944257;29;21061;-93
2021/10/05 11:50:08;;;;;;;;;;;;;;;;;;;;;
2021/10/05 11:52:39;;;;;;;0.80;0.80;;;;;;;;;;4603471;29;10000168;-88
2021/10/05 11:55:08;;;;;;;1.40;1.40;;;25.90;41.40;;;;;;4942761;29;20187;-89
2021/10/05 11:57:34;;;;;;;1.17;0.90;;;25.50;43.10;;;;;;4940350;29;20431;-88
2021/10/05 12:00:12;;;;;;;1.10;1.10;;;26.30;44.20;;;;;;4939962;29;20510;-91
2021/10/05 12:02:40;;;;;;;1.00;1.00;;;25.80;42.20;;;;;;4940034;29;20832;-88
2021/10/05 12:05:21;;;;;;;1.30;0.80;;;25.90;42.60;;;;;;4943694;29;20420;-91
2021/10/05 12:07:47;;;;;;;1.40;1.00;;;25.30;43.60;;;;;;4946976;29;20517;-86
2021/10/05 12:10:38;;;;;;;1.23;1.10;;;25.20;42.70;;;;;;4966312;28;20572;-89
2021/10/05 12:13:15;;;;;;;0.90;0.80;;;25.80;42.50;;;;;;4929412;29;20431;-90
2021/10/05 12:15:40;;;;;;;1.20;1.20;;;25.40;42.00;;;;;;4945593;29;20514;-88
2021/10/05 12:18:07;;;;;;;1.20;1.03;;;27.20;43.40;;;;;;4952647;29;20455;-88
2021/10/05 12:20:33;;;;;;;1.30;0.97;;;25.40;42.90;;;;;;4924357;29;20250;-90
2021/10/05 12:26:20;;;;;;;0.90;0.90;;;24.70;43.30;;;;;;4917217;29;20514;-86
2021/10/05 12:29:34;;;;;;;;;;;;;;;;;;;;;
2021/10/05 12:32:48;;;;;;;;;;;;;;;;;;;;;
2021/10/05 12:35:54;;;;;;;;;;;;;;;;;;;;;
2021/10/05 12:38:59;;;;;;;1.10;1.00;;;22.20;46.70;;;;;;4870310;29;20500;-90
2021/10/05 12:41:34;;;;;;;0.97;0.97;;;22.00;46.70;;;;;;4894716;29;20474;-87
2021/10/05 12:44:00;;;;;;;1.10;1.10;;;25.40;51.30;;;;;;4944613;29;20407;-89
2021/10/05 12:46:32;;;;;;;2.43;1.30;;;22.10;46.60;;;;;;4932306;29;20475;-91
2021/10/05 12:52:44;;;;;;;;;;;;;;;;;;;;;
2021/10/05 12:55:20;;;;;;;1.17;1.17;;;21.60;49.00;;;;;;4948439;29;20439;-88
2021/10/05 12:58:26;;;;;;;1.47;0.97;;;20.80;50.90;;;;;;4949903;29;20430;-87
2021/10/05 13:01:26;;;;;;;;;;;;;;;;;;;;;
2021/10/05 13:03:58;;;;;;;2.20;1.60;;;19.30;49.90;;;;;;4951268;29;20439;-91
2021/10/05 13:06:33;;;;;;;3.17;1.40;;;22.00;53.20;;;;;;4929947;29;20890;-90
2021/10/05 13:09:02;;;;;;;1.10;1.10;;;22.50;51.70;;;;;;4927875;29;20411;-90
2021/10/05 13:11:28;;;;;;;1.17;1.17;;;21.60;49.30;;;;;;4929668;29;20436;-90
2021/10/05 13:14:14;;;;;;;1.27;1.23;;;23.50;51.20;;;;;;4931961;29;20424;-92
2021/10/05 13:20:03;;;;;;;1.53;1.30;;;20.90;52.70;;;;;;5021379;23;20952;-87
2021/10/05 13:22:34;;;;;;;1.33;1.30;;;20.30;49.30;;;;;;4969313;28;20461;-89
2021/10/05 13:25:14;;;;;;;1.70;1.60;;;23.20;52.60;;;;;;4966131;28;20434;-88
2021/10/05 13:27:40;;;;;;;3.97;1.50;;;23.60;48.10;;;;;;4969701;28;20433;-88
2021/10/05 13:30:09;;;;;;;2.60;1.30;;;25.00;49.20;;;;;;4981818;28;20441;-90
2021/10/05 13:32:39;;;;;;;1.70;1.60;;;24.30;46.50;;;;;;4968444;28;20187;-89